Time;durP1;ratioP1;P1;durP2;ratioP2;P2;SDS_P1;SDS_P2;PMS_P1;PMS_P2;Temp;Humidity;BMP_temperature;BMP_pressure;BME280_temperature;BME280_humidity;BME280_pressure;Samples;Min_cycle;Max_cycle;Signal;HPM_P1;HPM_P2
2023/10/12 00:00:24;;;;;;;9.48;5.45;;;;;;;18.42;55.39;99994.56;4369071;32;34677;-67
2023/10/12 00:02:50;;;;;;;10.77;5.40;;;;;;;18.46;55.64;99989.69;4365121;32;33740;-67
2023/10/12 00:05:19;;;;;;;8.57;3.47;;;;;;;18.45;55.03;99985.28;4363449;32;33507;-68
2023/10/12 00:07:49;;;;;;;10.05;4.25;;;;;;;18.44;54.81;99981.72;4374496;32;34535;-67
2023/10/12 00:12:46;;;;;;;5.70;2.83;;;;;;;18.32;54.19;99978.44;4371914;32;34223;-67
2023/10/12 00:17:52;;;;;;;5.10;2.90;;;;;;;18.22;53.63;99974.97;4369984;32;33325;-67
2023/10/12 00:20:35;;;;;;;7.45;3.55;;;;;;;18.16;53.50;99967.47;4373212;32;34083;-67
2023/10/12 00:23:13;;;;;;;4.20;2.67;;;;;;;18.16;54.22;99967.47;4367127;32;34848;-67
2023/10/12 00:25:46;;;;;;;5.72;4.00;;;;;;;18.18;55.00;99964.63;4376176;32;33877;-67
2023/10/12 00:28:19;;;;;;;;;;;;;;;18.18;55.01;99967.34;4370624;32;33061;-67
2023/10/12 00:30:50;;;;;;;5.80;3.10;;;;;;;18.14;55.03;99964.09;4373092;32;34272;-66
2023/10/12 00:33:18;;;;;;;14.23;4.60;;;;;;;18.14;55.07;99966.81;4376199;32;33844;-66
2023/10/12 00:36:04;;;;;;;6.43;4.70;;;;;;;18.16;54.78;99962.91;4365526;32;34045;-66
2023/10/12 00:38:32;;;;;;;17.00;4.80;;;;;;;18.12;54.72;99955.25;4369249;32;33637;-66
2023/10/12 00:41:04;;;;;;;7.35;3.28;;;;;;;18.02;54.57;99954.50;4368693;32;34754;-68
2023/10/12 00:43:36;;;;;;;6.87;3.87;;;;;;;18.02;54.25;99954.50;4374921;32;34182;-68
2023/10/12 00:46:34;;;;;;;7.55;4.68;;;;;;;18.02;54.01;99943.69;4367511;32;33911;-67
2023/10/12 00:49:19;;;;;;;9.27;3.83;;;;;;;17.99;54.21;99944.84;4373316;32;33262;-67
2023/10/12 00:51:51;;;;;;;9.05;3.97;;;;;;;17.95;53.99;99946.19;4374095;32;33629;-67
2023/10/12 00:54:26;;;;;;;6.20;2.60;;;;;;;17.92;53.88;99943.78;4374408;32;34185;-67
2023/10/12 00:56:57;;;;;;;7.13;2.77;;;;;;;17.87;53.41;99952.34;4375891;32;33861;-67
2023/10/12 00:59:27;;;;;;;6.40;2.97;;;;;;;17.82;53.29;99943.03;4372899;32;32801;-67
2023/10/12 01:01:55;;;;;;;10.73;3.33;;;;;;;17.79;53.15;99946.88;4370598;32;33614;-67
2023/10/12 01:04:22;;;;;;;10.05;4.15;;;;;;;17.69;52.99;99937.97;4365093;32;33827;-67
2023/10/12 01:06:51;;;;;;;9.65;4.10;;;;;;;17.51;53.65;99942.53;4381645;32;33873;-67
2023/10/12 01:09:19;;;;;;;5.25;3.00;;;;;;;17.37;54.02;99939.37;4374128;32;34190;-67
2023/10/12 01:12:00;;;;;;;8.80;3.95;;;;;;;17.30;54.08;99940.09;4375528;32;34696;-67
2023/10/12 01:14:30;;;;;;;5.47;3.00;;;;;;;17.25;53.85;99934.31;4358412;32;34834;-67
2023/10/12 01:16:58;;;;;;;9.02;3.50;;;;;;;17.20;53.66;99932.91;4361983;32;34711;-66
2023/10/12 01:19:31;;;;;;;11.35;4.20;;;;;;;17.18;54.02;99931.38;4365886;32;33248;-67
2023/10/12 01:22:12;;;;;;;5.75;3.03;;;;;;;17.05;54.45;99923.63;4375203;32;34576;-67
2023/10/12 01:27:21;;;;;;;7.50;4.18;;;;;;;16.95;54.61;99915.59;4371947;32;33777;-67
2023/10/12 01:29:50;;;;;;;7.55;4.03;;;;;;;16.90;55.08;99920.59;4364004;32;33344;-67
2023/10/12 01:34:53;;;;;;;5.57;3.45;;;;;;;16.89;55.50;99924.31;4369548;32;34846;-67
2023/10/12 01:37:25;;;;;;;12.98;4.93;;;;;;;16.93;55.40;99914.88;4369262;32;34064;-67
2023/10/12 01:45:41;;;;;;;9.60;5.00;;;;;;;16.69;55.69;99912.72;4323787;33;34977;-68
2023/10/12 01:48:16;;;;;;;7.70;4.00;;;;;;;16.75;55.35;99909.41;4323949;33;33774;-68
2023/10/12 01:50:43;;;;;;;8.27;3.93;;;;;;;16.72;55.87;99906.97;4327115;33;33211;-67
2023/10/12 01:55:51;;;;;;;6.00;3.75;;;;;;;16.76;56.11;99915.69;4323011;33;35345;-67
2023/10/12 01:58:20;;;;;;;11.10;5.22;;;;;;;16.76;55.80;99916.53;4327990;33;34605;-67
2023/10/12 02:00:53;;;;;;;6.30;3.90;;;;;;;16.77;55.71;99918.22;4324019;33;33359;-67
2023/10/12 02:03:31;;;;;;;7.72;4.00;;;;;;;16.73;55.45;99915.97;4321379;33;33919;-67
2023/10/12 02:05:59;;;;;;;8.85;4.37;;;;;;;16.75;55.14;99914.81;4321525;33;34071;-67
2023/10/12 02:08:32;;;;;;;7.07;4.75;;;;;;;16.77;55.00;99915.53;4323830;33;33607;-68
2023/10/12 02:11:09;;;;;;;7.40;3.83;;;;;;;16.65;55.84;99916.69;4325964;33;32873;-67
2023/10/12 02:13:41;;;;;;;4.12;3.30;;;;;;;16.70;55.62;99913.56;4326418;33;33552;-67
2023/10/12 02:16:12;;;;;;;8.07;4.43;;;;;;;16.68;55.62;99912.84;4329232;33;34819;-67
2023/10/12 02:18:42;;;;;;;8.20;4.32;;;;;;;16.69;55.41;99919.94;4320348;33;34081;-68
2023/10/12 02:21:11;;;;;;;5.82;3.92;;;;;;;16.66;55.25;99928.34;4347845;32;34187;-68
2023/10/12 02:26:35;;;;;;;6.10;3.97;;;;;;;16.61;55.30;99925.25;4361055;32;33916;-67
2023/10/12 02:31:39;;;;;;;;;;;;;;;16.59;55.18;99911.03;4373623;32;33037;-67
2023/10/12 02:34:14;;;;;;;5.10;3.67;;;;;;;16.44;55.39;99919.66;4374363;32;34088;-67
2023/10/12 02:39:40;;;;;;;7.25;4.47;;;;;;;16.51;55.16;99925.31;4371513;32;34616;-67
2023/10/12 02:47:23;;;;;;;8.65;5.68;;;;;;;16.57;55.19;99910.34;4374205;32;33802;-67
2023/10/12 02:50:00;;;;;;;7.53;5.15;;;;;;;16.54;54.85;99916.91;4371027;32;33635;-67
2023/10/12 02:52:30;;;;;;;8.38;4.28;;;;;;;16.52;54.66;99913.50;4372419;32;33079;-67
2023/10/12 02:55:07;;;;;;;8.38;5.25;;;;;;;16.50;54.69;99915.47;4374105;32;33082;-67
2023/10/12 02:57:37;;;;;;;9.55;5.70;;;;;;;16.49;55.01;99919.19;4370054;32;33919;-67
2023/10/12 03:00:13;;;;;;;9.43;4.07;;;;;;;16.49;54.94;99911.06;4380820;32;33641;-67
2023/10/12 03:02:43;;;;;;;;;;;;;;;16.52;54.44;99905.38;4364732;32;34107;-67
2023/10/12 03:05:17;;;;;;;10.00;5.93;;;;;;;16.48;54.46;99909.37;4370052;32;33956;-67
2023/10/12 03:07:46;;;;;;;9.43;5.05;;;;;;;16.47;54.63;99915.81;4374990;32;34928;-67
2023/10/12 03:10:31;;;;;;;9.88;6.22;;;;;;;16.43;54.57;99909.81;4375844;32;34071;-67
2023/10/12 03:13:04;;;;;;;9.20;5.93;;;;;;;16.36;55.00;99897.91;4373222;32;33581;-67
2023/10/12 03:15:42;;;;;;;7.72;4.18;;;;;;;16.41;54.33;99906.44;4376664;32;33552;-67
2023/10/12 03:18:13;;;;;;;5.28;3.80;;;;;;;16.37;54.63;99901.47;4375994;32;35271;-67
2023/10/12 03:21:01;;;;;;;24.30;4.50;;;;;;;16.30;54.83;99907.44;4371932;32;34911;-67
2023/10/12 03:23:29;;;;;;;10.32;5.35;;;;;;;16.20;54.31;99912.03;4373711;32;33209;-68
2023/10/12 03:25:57;;;;;;;9.05;5.32;;;;;;;16.26;54.14;99913.31;4375398;32;33967;-68
2023/10/12 03:28:46;;;;;;;7.57;4.72;;;;;;;16.28;54.21;99920.25;4369294;32;34976;-68
2023/10/12 03:31:35;;;;;;;5.15;4.03;;;;;;;16.31;53.90;99919.13;4365556;32;33661;-68
2023/10/12 03:34:14;;;;;;;9.90;5.40;;;;;;;16.25;53.80;99920.56;4372719;32;33046;-68
2023/10/12 03:36:47;;;;;;;7.80;4.03;;;;;;;16.23;53.67;99910.91;4365090;32;33731;-68
2023/10/12 03:39:27;;;;;;;10.77;5.18;;;;;;;16.15;54.10;99903.53;4373605;32;35016;-68
2023/10/12 03:41:55;;;;;;;6.05;4.57;;;;;;;16.11;54.34;99906.66;4368090;32;34706;-68
2023/10/12 03:52:27;;;;;;;6.18;4.35;;;;;;;16.18;54.71;99902.37;4363521;32;33897;-68
2023/10/12 03:55:16;;;;;;;7.22;4.80;;;;;;;16.18;54.56;99895.16;4367469;32;33450;-68
2023/10/12 04:02:56;;;;;;;8.00;5.53;;;;;;;16.20;54.35;99906.62;4372361;32;33498;-68
2023/10/12 04:18:41;;;;;;;9.65;4.78;;;;;;;16.19;54.77;99893.28;4371520;32;33450;-68
2023/10/12 04:21:10;;;;;;;11.43;6.60;;;;;;;16.20;54.73;99894.97;4366872;32;34467;-68
2023/10/12 04:24:27;;;;;;;11.80;6.30;;;;;;;16.23;54.82;99898.25;4374511;32;34989;-67
2023/10/12 04:29:08;;;;;;;8.48;6.40;;;;;;;16.30;54.70;99901.19;4371202;32;34904;-66
2023/10/12 04:34:15;;;;;;;9.13;5.47;;;;;;;16.27;54.25;99891.53;4371002;32;34909;-66
2023/10/12 04:46:59;;;;;;;9.88;5.45;;;;;;;16.41;55.07;99887.53;4364056;32;33144;-69
2023/10/12 04:57:26;;;;;;;10.48;6.03;;;;;;;16.44;54.04;99897.19;4366444;32;33516;-75
2023/10/12 05:00:07;;;;;;;10.00;6.30;;;;;;;16.41;53.74;99898.31;4370629;32;34843;-75
2023/10/12 05:05:54;;;;;;;14.27;5.80;;;;;;;16.34;53.34;99904.44;4379482;32;33972;-69
2023/10/12 05:08:05;;;;;;;9.40;5.60;;;;;;;16.23;53.39;99909.03;4378163;32;33555;-71
2023/10/12 05:13:07;;;;;;;7.28;5.25;;;;;;;16.07;53.88;99912.34;4365202;32;33921;-69
2023/10/12 05:15:42;;;;;;;9.10;4.80;;;;;;;15.99;54.30;99912.25;4365353;32;34498;-70
2023/10/12 05:18:11;;;;;;;7.15;4.87;;;;;;;15.95;54.50;99912.66;4374213;32;33179;-70
2023/10/12 05:20:42;;;;;;;8.68;4.18;;;;;;;15.87;54.75;99916.09;4374868;32;33850;-70
2023/10/12 05:23:11;;;;;;;10.27;5.30;;;;;;;15.87;55.58;99915.25;4374241;32;33836;-69
2023/10/12 05:28:18;;;;;;;5.65;2.55;;;;;;;15.96;56.47;99907.13;4360570;32;33949;-69
2023/10/12 05:30:59;;;;;;;9.73;4.00;;;;;;;16.02;56.64;99901.16;4362111;32;33524;-69
2023/10/12 05:36:09;;;;;;;15.95;11.93;;;;;;;16.07;57.19;99901.56;4369793;32;33709;-70
2023/10/12 05:38:49;;;;;;;11.45;8.02;;;;;;;16.13;57.35;99901.97;4372605;32;34480;-70
2023/10/12 05:41:34;;;;;;;7.53;3.75;;;;;;;16.18;57.40;99907.78;4371642;32;33784;-70
2023/10/12 05:44:03;;;;;;;8.90;5.50;;;;;;;16.23;57.53;99906.34;4365878;32;34147;-70
2023/10/12 05:46:34;;;;;;;7.72;5.10;;;;;;;16.23;57.96;99911.75;4373316;32;34613;-70
2023/10/12 05:49:11;;;;;;;15.25;7.07;;;;;;;16.44;57.22;99911.53;4374545;32;34508;-70
2023/10/12 05:51:43;;;;;;;17.50;7.57;;;;;;;16.53;56.91;99907.06;4368318;32;35157;-70
2023/10/12 05:54:15;;;;;;;11.40;6.87;;;;;;;16.50;56.96;99908.25;4367412;32;33786;-69
2023/10/12 05:56:43;;;;;;;12.98;6.62;;;;;;;16.66;56.87;99907.59;4368717;32;34877;-70
2023/10/12 05:59:14;;;;;;;6.32;3.90;;;;;;;16.72;57.12;99908.84;4369192;32;35064;-70
2023/10/12 06:01:45;;;;;;;10.07;4.72;;;;;;;16.81;57.07;99907.97;4368514;32;33659;-69
2023/10/12 06:04:20;;;;;;;12.75;4.97;;;;;;;16.88;57.20;99902.81;4372668;32;35245;-70
2023/10/12 06:06:51;;;;;;;6.37;4.05;;;;;;;16.89;57.18;99908.06;4371506;32;34026;-70
2023/10/12 06:09:20;;;;;;;8.32;5.18;;;;;;;16.87;57.13;99920.03;4366502;32;33133;-70
2023/10/12 06:11:51;;;;;;;11.23;5.50;;;;;;;17.05;56.72;99914.69;4372166;32;34589;-70
2023/10/12 06:14:22;;;;;;;7.72;4.97;;;;;;;17.15;56.59;99919.00;4368465;32;33987;-70
2023/10/12 06:16:59;;;;;;;6.47;4.50;;;;;;;17.26;56.47;99917.09;4364950;32;33472;-69
2023/10/12 06:19:29;;;;;;;12.95;5.05;;;;;;;17.36;56.16;99934.09;4365354;32;33875;-70
2023/10/12 06:21:59;;;;;;;7.05;5.12;;;;;;;17.42;56.00;99926.22;4373400;32;33979;-66
2023/10/12 06:24:33;;;;;;;12.52;5.43;;;;;;;17.57;55.74;99926.53;4363478;32;35215;-70
2023/10/12 06:27:22;;;;;;;10.45;6.37;;;;;;;17.86;54.93;99929.00;4361467;32;33533;-70
2023/10/12 06:29:54;;;;;;;10.52;5.75;;;;;;;17.64;55.74;99924.87;4366036;32;34466;-70
2023/10/12 06:32:32;;;;;;;8.57;5.62;;;;;;;17.56;55.35;99922.13;4365917;32;34690;-70
2023/10/12 06:51:02;;;;;;;10.20;4.57;;;;;;;17.40;55.12;99927.38;4371381;32;33709;-70
2023/10/12 06:53:34;;;;;;;9.52;3.87;;;;;;;17.39;55.50;99920.25;4363125;32;33683;-70
2023/10/12 07:01:52;;;;;;;5.75;4.10;;;;;;;17.80;55.17;99926.06;4371424;32;33217;-70
2023/10/12 07:04:27;;;;;;;12.02;5.80;;;;;;;17.42;55.10;99926.22;4363994;32;34843;-70
2023/10/12 07:09:40;;;;;;;9.23;5.15;;;;;;;17.48;55.20;99930.16;4366564;32;33898;-70
2023/10/12 07:12:14;;;;;;;9.73;5.75;;;;;;;17.49;55.61;99941.81;4362913;32;33761;-70
2023/10/12 07:14:54;;;;;;;9.48;4.53;;;;;;;17.73;54.92;99943.94;4366930;32;33519;-70
2023/10/12 07:17:34;;;;;;;10.25;3.67;;;;;;;17.83;55.08;99939.31;4366002;32;35082;-70
2023/10/12 07:20:03;;;;;;;12.20;5.32;;;;;;;17.75;54.52;99936.47;4368791;32;33961;-70
2023/10/12 07:22:36;;;;;;;6.55;3.97;;;;;;;17.59;55.52;99932.66;4368237;32;33144;-70
2023/10/12 07:25:04;;;;;;;11.35;5.93;;;;;;;17.55;55.53;99933.94;4373331;32;33887;-70
2023/10/12 07:27:48;;;;;;;9.77;5.37;;;;;;;17.71;55.34;99935.94;4370748;32;34163;-71
2023/10/12 07:30:42;;;;;;;7.82;5.28;;;;;;;17.83;55.05;99934.72;4373489;32;33968;-72
2023/10/12 07:33:10;;;;;;;6.95;4.10;;;;;;;18.40;53.68;99931.56;4367028;32;33344;-75
2023/10/12 07:35:39;;;;;;;7.53;3.83;;;;;;;18.96;51.34;99919.31;4373866;32;33741;-75
2023/10/12 07:38:25;;;;;;;6.28;3.67;;;;;;;19.29;50.66;99925.69;4370092;32;34800;-76
2023/10/12 07:41:00;;;;;;;9.93;3.92;;;;;;;19.11;50.96;99924.13;4368012;32;33801;-76
2023/10/12 07:43:31;;;;;;;19.17;6.32;;;;;;;18.94;51.40;99918.66;4369959;32;33925;-76
2023/10/12 07:46:13;;;;;;;8.75;5.55;;;;;;;18.56;52.68;99917.28;4368690;32;33686;-75
2023/10/12 07:48:43;;;;;;;8.18;5.12;;;;;;;18.88;52.53;99919.31;4371141;32;34128;-71
2023/10/12 07:51:15;;;;;;;12.45;5.07;;;;;;;18.82;52.90;99918.09;4363107;32;34303;-71
2023/10/12 07:53:50;;;;;;;12.18;4.70;;;;;;;18.90;52.23;99911.84;4366098;32;33463;-72
2023/10/12 07:56:18;;;;;;;8.50;4.25;;;;;;;18.97;52.24;99917.44;4366203;32;33490;-71
2023/10/12 07:58:51;;;;;;;18.42;4.82;;;;;;;18.65;52.59;99919.00;4366200;32;34085;-72
2023/10/12 08:01:38;;;;;;;13.32;6.20;;;;;;;18.82;52.77;99919.94;4372092;32;33743;-72
2023/10/12 08:04:09;;;;;;;12.93;4.22;;;;;;;18.70;52.90;99919.34;4373795;32;33032;-72
2023/10/12 08:06:42;;;;;;;6.93;3.92;;;;;;;18.89;52.77;99920.16;4352046;32;33483;-72
2023/10/12 08:09:33;;;;;;;6.03;4.32;;;;;;;18.63;53.20;99916.44;4354122;32;34118;-72
2023/10/12 08:12:24;;;;;;;7.97;4.37;;;;;;;18.81;53.08;99915.53;4349983;32;34935;-74
2023/10/12 08:15:09;;;;;;;8.43;5.65;;;;;;;19.20;52.27;99913.12;4347851;32;33195;-74
2023/10/12 08:17:39;;;;;;;7.35;3.70;;;;;;;19.37;52.16;99916.72;4347219;32;33824;-73
2023/10/12 08:22:57;;;;;;;8.60;5.72;;;;;;;19.34;51.64;99892.63;4346158;32;34623;-75
2023/10/12 08:25:37;;;;;;;17.75;11.63;;;;;;;19.45;51.74;99895.00;4352770;32;33358;-77
2023/10/12 08:28:18;;;;;;;13.02;6.03;;;;;;;19.37;51.99;99895.00;4352175;32;33437;-77
2023/10/12 08:30:57;;;;;;;6.28;4.22;;;;;;;19.53;51.67;99891.44;4357282;32;33935;-74
2023/10/12 08:38:56;;;;;;;8.63;4.05;;;;;;;19.76;51.28;99900.63;4370254;32;33549;-69
2023/10/12 08:43:59;;;;;;;11.63;6.22;;;;;;;19.67;52.13;99895.37;4374825;32;33759;-73
2023/10/12 08:52:06;;;;;;;9.88;6.72;;;;;;;19.30;52.52;99900.25;4367817;32;33665;-72
2023/10/12 08:54:37;;;;;;;7.18;4.95;;;;;;;19.99;51.42;99897.22;4372928;32;34830;-71
2023/10/12 08:57:20;;;;;;;10.70;6.43;;;;;;;19.68;51.95;99888.94;4370549;32;33520;-73
2023/10/12 09:02:40;;;;;;;11.48;5.15;;;;;;;19.89;51.34;99882.97;4360748;32;33795;-73
2023/10/12 09:05:11;;;;;;;14.68;6.15;;;;;;;20.19;51.23;99887.69;4374678;32;32486;-71
2023/10/12 09:07:45;;;;;;;11.50;6.72;;;;;;;20.15;51.30;99885.47;4368641;32;33296;-70
2023/10/12 09:13:09;;;;;;;8.98;5.70;;;;;;;20.22;50.79;99884.63;4311801;33;33869;-72
2023/10/12 09:15:45;;;;;;;11.00;6.87;;;;;;;20.53;50.62;99891.19;4289687;33;33509;-72
2023/10/12 09:18:17;;;;;;;11.75;6.12;;;;;;;20.70;50.32;99881.94;4311981;33;33651;-70
2023/10/12 09:36:43;;;;;;;11.57;5.95;;;;;;;21.18;48.89;99874.53;4249006;33;33809;-72
2023/10/12 09:39:15;;;;;;;10.45;6.43;;;;;;;21.17;48.83;99870.97;4252312;33;33333;-72
2023/10/12 09:41:54;;;;;;;9.43;5.47;;;;;;;21.17;49.55;99860.09;4254595;33;32282;-71
2023/10/12 09:44:26;;;;;;;9.70;7.18;;;;;;;21.63;48.25;99872.88;4251632;33;34390;-71
2023/10/12 09:46:56;;;;;;;8.48;4.93;;;;;;;21.80;48.43;99869.00;4251796;33;34445;-70
2023/10/12 09:49:29;;;;;;;20.30;5.28;;;;;;;21.62;48.07;99869.31;4269665;33;33639;-71
2023/10/12 09:51:59;;;;;;;12.07;5.47;;;;;;;21.63;48.82;99862.81;4314487;33;33268;-72
2023/10/12 09:54:45;;;;;;;15.93;5.93;;;;;;;21.82;47.78;99863.34;4311481;33;33730;-72
2023/10/12 09:57:23;;;;;;;13.65;5.78;;;;;;;21.97;47.51;99863.37;4303048;33;34855;-71
2023/10/12 09:59:53;;;;;;;11.20;5.65;;;;;;;22.40;46.56;99863.63;4327762;32;33026;-72
2023/10/12 10:02:28;;;;;;;11.80;5.12;;;;;;;22.03;47.38;99871.66;4376829;32;34452;-72
2023/10/12 10:05:11;;;;;;;11.52;6.25;;;;;;;22.40;46.72;99867.19;4380202;32;33327;-72
2023/10/12 10:07:43;;;;;;;10.07;5.55;;;;;;;22.62;46.38;99865.38;4379000;32;34885;-72
2023/10/12 10:10:27;;;;;;;13.70;6.05;;;;;;;22.02;48.18;99864.53;4365182;32;34299;-71
2023/10/12 10:12:54;;;;;;;15.02;6.57;;;;;;;22.39;47.34;99854.59;4366139;32;32524;-72
2023/10/12 10:15:24;;;;;;;10.63;5.85;;;;;;;22.92;46.12;99855.28;4382401;32;34947;-73
2023/10/12 10:17:56;;;;;;;14.80;7.47;;;;;;;22.16;47.90;99851.13;4382702;32;34915;-72
2023/10/12 10:22:58;;;;;;;9.98;5.53;;;;;;;22.78;46.77;99846.06;4384366;32;33759;-72
2023/10/12 10:25:42;;;;;;;10.30;5.55;;;;;;;22.59;47.51;99840.37;4379535;32;34118;-71
2023/10/12 10:28:18;;;;;;;14.57;7.90;;;;;;;22.92;46.52;99848.97;4373158;32;33958;-72
2023/10/12 10:30:50;;;;;;;15.18;7.20;;;;;;;22.86;47.60;99842.41;4346271;32;32532;-72
2023/10/12 10:33:22;;;;;;;9.98;6.65;;;;;;;22.83;47.00;99844.69;4344466;32;33771;-70
2023/10/12 10:36:01;;;;;;;10.02;5.85;;;;;;;22.47;47.98;99840.00;4343207;32;33996;-72
2023/10/12 10:38:34;;;;;;;18.23;7.80;;;;;;;22.86;47.48;99836.94;4314502;33;33116;-71
2023/10/12 10:41:05;;;;;;;12.68;7.10;;;;;;;23.17;46.50;99838.56;4315716;33;33581;-72
2023/10/12 10:43:37;;;;;;;13.35;6.37;;;;;;;23.60;45.78;99828.47;4313597;33;35076;-72
2023/10/12 10:46:10;;;;;;;15.43;6.18;;;;;;;23.67;45.60;99820.34;4322209;33;34641;-71
2023/10/12 10:48:40;;;;;;;8.43;5.00;;;;;;;23.60;45.34;99820.28;4313301;33;34402;-72
2023/10/12 10:51:18;;;;;;;11.15;5.57;;;;;;;23.39;45.93;99821.13;4317044;33;32737;-70
2023/10/12 10:53:53;;;;;;;14.27;5.55;;;;;;;23.43;46.09;99822.44;4330144;33;32585;-69
2023/10/12 10:56:35;;;;;;;18.75;5.47;;;;;;;23.05;47.32;99816.41;4330999;33;34067;-72
2023/10/12 10:59:07;;;;;;;15.23;5.75;;;;;;;23.72;46.07;99823.34;4325353;33;33097;-72
2023/10/12 11:01:35;;;;;;;14.18;5.50;;;;;;;24.13;44.32;99814.38;4328792;33;33696;-70
2023/10/12 11:04:17;;;;;;;10.05;5.25;;;;;;;24.10;44.58;99809.31;4332805;33;33911;-71
2023/10/12 11:06:53;;;;;;;10.77;5.50;;;;;;;23.97;45.16;99815.53;4330113;33;34146;-72
2023/10/12 11:09:22;;;;;;;;;;;;;;;23.89;45.76;99807.50;4356586;32;33719;-70
2023/10/12 11:11:59;;;;;;;13.98;6.72;;;;;;;24.02;45.51;99814.97;4337333;33;34322;-71
2023/10/12 11:14:31;;;;;;;13.55;7.72;;;;;;;24.19;44.83;99813.56;4342983;32;34091;-70
2023/10/12 11:17:04;;;;;;;16.08;8.07;;;;;;;23.71;46.31;99810.72;4338921;32;35304;-70
2023/10/12 11:19:33;;;;;;;14.55;6.93;;;;;;;23.57;46.15;99803.44;4348253;32;33628;-70
2023/10/12 11:22:00;;;;;;;11.48;7.82;;;;;;;24.05;45.15;99790.78;4333250;32;33442;-71
2023/10/12 11:24:28;;;;;;;11.75;7.50;;;;;;;23.80;46.54;99798.59;4342757;33;33385;-73
2023/10/12 11:26:57;;;;;;;13.88;7.60;;;;;;;24.14;46.01;99794.19;4342973;32;34794;-71
2023/10/12 11:29:25;;;;;;;15.20;8.35;;;;;;;24.08;45.69;99793.13;4341572;32;34562;-70
2023/10/12 11:32:08;;;;;;;11.23;6.25;;;;;;;24.16;45.90;99786.63;4338274;32;33573;-71
2023/10/12 11:34:52;;;;;;;15.88;6.95;;;;;;;24.20;45.89;99782.44;4337258;32;34258;-70
2023/10/12 11:37:20;;;;;;;11.63;5.55;;;;;;;23.90;46.49;99779.97;4340883;32;34933;-71
2023/10/12 11:39:52;;;;;;;11.82;7.57;;;;;;;24.24;46.08;99783.75;4331910;33;32157;-69
2023/10/12 11:42:20;;;;;;;14.30;8.20;;;;;;;24.50;45.43;99782.22;4342670;32;33092;-69
2023/10/12 11:44:51;;;;;;;14.55;6.60;;;;;;;24.40;45.74;99777.94;4365184;32;32167;-68
2023/10/12 11:47:23;;;;;;;16.40;6.03;;;;;;;24.23;46.12;99781.19;4366293;32;33996;-68
2023/10/12 11:49:56;;;;;;;17.55;7.43;;;;;;;24.07;46.89;99777.75;4367104;32;34890;-68
2023/10/12 11:52:30;;;;;;;7.82;4.95;;;;;;;24.52;45.86;99767.25;4366771;32;34835;-68
2023/10/12 11:55:06;;;;;;;11.98;6.22;;;;;;;24.48;45.61;99767.88;4354209;32;33496;-68
2023/10/12 11:57:37;;;;;;;16.73;6.55;;;;;;;24.61;45.53;99763.28;4370128;32;33858;-68
2023/10/12 12:00:21;;;;;;;8.38;4.68;;;;;;;24.95;44.64;99757.94;4373022;32;33193;-69
2023/10/12 12:02:53;;;;;;;12.73;5.47;;;;;;;24.93;44.27;99762.75;4370070;32;33172;-72
2023/10/12 12:05:22;;;;;;;9.90;5.65;;;;;;;25.16;43.96;99755.03;4368137;32;34818;-71
2023/10/12 12:07:51;;;;;;;13.88;6.93;;;;;;;24.99;44.75;99756.44;4371748;32;32684;-71
2023/10/12 12:10:26;;;;;;;16.55;7.68;;;;;;;24.82;45.18;99762.31;4373781;32;33794;-71
2023/10/12 12:12:57;;;;;;;12.27;6.70;;;;;;;24.42;45.72;99758.59;4373558;32;34254;-70
2023/10/12 12:15:25;;;;;;;10.88;5.47;;;;;;;24.57;45.38;99758.44;4370205;32;34469;-71
2023/10/12 12:17:53;;;;;;;16.60;6.35;;;;;;;25.23;44.64;99752.28;4368239;32;34853;-71
2023/10/12 12:20:25;;;;;;;10.90;5.75;;;;;;;24.76;45.72;99754.09;4373991;32;33585;-71
2023/10/12 12:22:57;;;;;;;9.68;5.30;;;;;;;24.81;44.63;99751.56;4370385;32;34222;-70
2023/10/12 12:25:38;;;;;;;15.50;7.47;;;;;;;25.18;43.91;99747.44;4369467;32;34112;-69
2023/10/12 12:28:07;;;;;;;10.75;5.70;;;;;;;25.41;43.32;99744.28;4375601;32;33191;-69
2023/10/12 12:30:39;;;;;;;12.68;5.32;;;;;;;24.77;44.04;99740.19;4347112;32;32587;-68
2023/10/12 12:33:15;;;;;;;8.30;4.72;;;;;;;25.44;42.74;99730.16;4350090;32;33576;-69
2023/10/12 12:35:47;;;;;;;14.50;8.02;;;;;;;25.25;43.14;99742.81;4354720;32;34883;-69
2023/10/12 12:40:56;;;;;;;15.27;7.22;;;;;;;25.66;43.51;99729.94;4346837;32;33882;-71
2023/10/12 12:43:23;;;;;;;14.23;6.60;;;;;;;25.25;44.14;99722.78;4346274;32;32874;-70
2023/10/12 12:45:52;;;;;;;10.35;5.82;;;;;;;25.58;43.54;99724.66;4361403;32;34017;-70
2023/10/12 12:48:20;;;;;;;12.65;5.45;;;;;;;26.07;42.14;99706.84;4351567;32;35679;-70
2023/10/12 12:50:48;;;;;;;10.60;5.18;;;;;;;25.56;43.82;99706.56;4351060;32;33455;-69
2023/10/12 12:53:19;;;;;;;13.48;7.12;;;;;;;25.74;42.75;99700.38;4354057;32;34438;-70
2023/10/12 12:55:47;;;;;;;9.70;5.65;;;;;;;25.76;42.35;99692.81;4347870;32;34933;-69
2023/10/12 12:58:15;;;;;;;11.82;5.35;;;;;;;25.35;42.99;99697.72;4359020;32;33608;-69
2023/10/12 13:00:50;;;;;;;9.18;5.07;;;;;;;25.56;42.39;99692.00;4357341;32;33346;-69
2023/10/12 13:03:18;;;;;;;;;;;;;;;26.12;41.27;99683.22;4366843;32;33446;-69
2023/10/12 13:05:46;;;;;;;12.95;7.57;;;;;;;26.34;42.23;99691.16;4368689;32;35150;-69
2023/10/12 13:08:16;;;;;;;10.00;5.55;;;;;;;26.03;42.66;99681.78;4369353;32;33672;-69
2023/10/12 13:10:44;;;;;;;11.38;5.72;;;;;;;26.09;42.62;99685.56;4371174;32;33884;-69
2023/10/12 13:13:12;;;;;;;14.95;5.68;;;;;;;25.63;43.01;99692.00;4374961;32;33181;-69
2023/10/12 13:15:47;;;;;;;10.15;6.65;;;;;;;25.72;43.11;99682.50;4364456;32;33681;-68
2023/10/12 13:18:15;;;;;;;13.45;5.15;;;;;;;25.46;43.05;99683.41;4368506;32;33836;-70
2023/10/12 13:20:46;;;;;;;12.48;5.72;;;;;;;26.13;41.92;99679.44;4364750;32;33517;-70
2023/10/12 13:23:17;;;;;;;9.73;4.87;;;;;;;25.90;42.55;99679.09;4368573;32;33146;-69
2023/10/12 13:25:45;;;;;;;13.48;5.90;;;;;;;26.25;41.82;99682.31;4366319;32;34994;-69
2023/10/12 13:28:13;;;;;;;11.05;5.68;;;;;;;26.19;42.10;99688.66;4376413;32;33725;-69
2023/10/12 13:30:40;;;;;;;11.43;7.72;;;;;;;25.52;43.32;99694.34;4364812;32;34955;-69
2023/10/12 13:33:11;;;;;;;7.68;4.95;;;;;;;25.64;42.90;99689.03;4365720;32;33310;-69
2023/10/12 13:35:42;;;;;;;15.98;6.80;;;;;;;26.08;42.14;99675.66;4351390;32;34794;-68
2023/10/12 13:38:14;;;;;;;12.00;5.50;;;;;;;26.22;42.26;99680.84;4366282;32;34985;-70
2023/10/12 13:40:48;;;;;;;9.35;5.85;;;;;;;25.70;42.06;99682.69;4368413;32;34004;-69
2023/10/12 13:43:21;;;;;;;14.77;6.97;;;;;;;26.05;41.66;99676.91;4371315;32;33308;-68
2023/10/12 13:45:52;;;;;;;13.88;6.30;;;;;;;26.08;42.13;99675.66;4363855;32;33889;-69
2023/10/12 13:48:27;;;;;;;13.27;6.53;;;;;;;26.10;42.08;99673.50;4360813;32;34136;-69
2023/10/12 13:51:00;;;;;;;15.50;7.93;;;;;;;25.69;42.91;99672.78;4372232;32;33706;-69
2023/10/12 13:53:28;;;;;;;14.15;6.95;;;;;;;25.53;42.55;99663.13;4374075;32;33034;-70
2023/10/12 13:55:56;;;;;;;10.20;5.20;;;;;;;26.03;42.00;99659.84;4368706;32;34015;-69
2023/10/12 13:58:24;;;;;;;11.48;5.10;;;;;;;26.08;42.02;99656.47;4366199;32;32679;-69
2023/10/12 14:00:54;;;;;;;14.73;7.45;;;;;;;26.28;41.20;99654.44;4370163;32;34625;-69
2023/10/12 14:03:28;;;;;;;15.43;6.72;;;;;;;26.40;41.00;99652.69;4373591;32;33212;-69
2023/10/12 14:05:57;;;;;;;10.18;5.60;;;;;;;26.35;41.24;99647.00;4364237;32;33703;-68
2023/10/12 14:08:28;;;;;;;12.68;5.68;;;;;;;26.23;41.28;99646.88;4375392;32;34222;-69
2023/10/12 14:11:02;;;;;;;13.65;6.60;;;;;;;26.27;41.47;99647.28;4360535;32;34448;-68
2023/10/12 14:13:31;;;;;;;14.30;6.28;;;;;;;26.42;40.73;99641.47;4370284;32;34434;-70
2023/10/12 14:15:59;;;;;;;15.77;6.32;;;;;;;26.53;40.20;99651.81;4365248;32;35300;-69
2023/10/12 14:18:28;;;;;;;12.63;6.40;;;;;;;26.34;41.15;99650.00;4372299;32;33884;-68
2023/10/12 14:20:56;;;;;;;14.57;6.07;;;;;;;26.71;40.43;99646.41;4366930;32;35630;-69
2023/10/12 14:23:26;;;;;;;13.95;5.78;;;;;;;26.65;40.57;99643.72;4372580;32;33394;-68
2023/10/12 14:25:57;;;;;;;16.77;6.32;;;;;;;26.40;41.12;99646.38;4364098;32;34403;-69
2023/10/12 14:28:31;;;;;;;18.48;5.75;;;;;;;26.21;41.49;99645.41;4367042;32;33718;-68
2023/10/12 14:31:00;;;;;;;11.73;6.72;;;;;;;26.70;40.14;99643.87;4364210;32;33725;-70
2023/10/12 14:33:31;;;;;;;14.38;6.85;;;;;;;26.65;40.46;99643.72;4362794;32;33393;-69
2023/10/12 14:35:59;;;;;;;10.55;5.05;;;;;;;26.29;41.11;99644.31;4365296;32;33541;-70